Lovell Field
KCHA : now visible

Airfield :











YOU CAN JOIN US ON...

 
LOGIN :

Register | Disclaimer

   EN    FR    IT 

 









Legend :    VFR   Marginal VFR   IFR   Intensive IFR   Very Intensive IFR
Visi :
Ceiling :
>= 8 km
>= 3000ft
5 to 8 km
1000 to 3000 ft
1500m to 5 km
500 to 1000 ft
800 to 1500m
200 to 500 ft
< 800m
< 200 ft
Symbols :   Thunderstorms  Fog  Heavy snow  Heavy precipitations  Wind > 20 kt






- Airport Elevation : 683 ft
- IATA code : CHA


KCHA - Lovell Field

CURRENT METAR :
  • 250402Z 02004KT 10SM OVC008 19/17 A2997 RMK AO2 T01890172 $

EXPIRED METARs :
  • 250353Z 05004KT 10SM SCT008 OVC090 19/18 A2997 RMK AO2 SLP143 LAST T01890178 $
  • 250253Z 03003KT 10SM SCT008 BKN100 19/18 A2997 RMK AO2 DZB38E50 SLP142 P0000 60000 T01940178 51003 $
  • 250208Z 01004KT 10SM SCT008 SCT080 OVC120 19/18 A2997 RMK AO2 T01940178 $
  • 250153Z 02006KT 10SM SCT010 SCT022 SCT065 SCT130 19/18 A2996 RMK AO2 RAE0056 SLP141 P0000 T01940178 $

TAF KCHA
Valid from the 25 at 04:00 until the 26 at 00:00 UTC


250411Z 2504/2524 05004KT P6SM OVC008
FM251000 02005KT 6SM -DZ BR OVC007
FM251600 VRB03KT P6SM BKN011
FM251800 00000KT P6SM SCT020 BKN050
KZTL FIR / North America



MET'MAP, your aeronautical weather chart ! - Copyright ORBIFLY December 2007 - Disclaimer

ORBIFLY MET'MAP TEAM :

Programming & Development : Alexandra Zaïnal
Concept & original design : Baudouin d'Aumeries
Assistance for programming : Marc-Olivier Méhu
Technical & hardware support : Manuel Goepfert

Contact : metmap@orbifly.com




SOURCES & CREDITS :

   NOAA       Earth
Advisory